Time;durP1;ratioP1;P1;durP2;ratioP2;P2;SDS_P1;SDS_P2;PMS_P1;PMS_P2;Temp;Humidity;BMP_temperature;BMP_pressure;BME280_temperature;BME280_humidity;BME280_pressure;Samples;Min_cycle;Max_cycle;Signal;HPM_P1;HPM_P2
2021/08/06 00:02:54;;;;;;;1.90;1.80;;;19.90;78.70;;;;;;10374239;28;20654;-29
2021/08/06 00:08:17;;;;;;;1.80;1.70;;;19.90;78.60;;;;;;10334333;28;20206;-29
2021/08/06 00:13:40;;;;;;;2.20;2.00;;;19.90;78.70;;;;;;10335822;28;20211;-32
2021/08/06 00:19:02;;;;;;;3.17;1.80;;;19.90;78.50;;;;;;10367028;28;20210;-30
2021/08/06 00:24:24;;;;;;;1.90;1.80;;;19.90;78.60;;;;;;10340352;28;20227;-29
2021/08/06 00:29:48;;;;;;;1.80;1.70;;;19.90;78.50;;;;;;10337222;28;20697;-28
2021/08/06 00:35:10;;;;;;;1.90;1.80;;;19.90;78.60;;;;;;10333902;28;20195;-31
2021/08/06 00:40:32;;;;;;;1.80;1.70;;;19.90;78.50;;;;;;10333901;28;20222;-28
2021/08/06 00:45:55;;;;;;;2.03;1.93;;;19.90;78.50;;;;;;10338465;28;20227;-29
2021/08/06 00:51:18;;;;;;;1.80;1.70;;;19.90;78.50;;;;;;10359321;28;20222;-28
2021/08/06 00:56:40;;;;;;;2.30;2.10;;;19.90;78.50;;;;;;10375265;28;20202;-29
2021/08/06 01:02:11;;;;;;;1.70;1.60;;;19.90;78.50;;;;;;10345623;28;20231;-30
2021/08/06 01:07:42;;;;;;;2.00;1.90;;;19.90;78.40;;;;;;10334674;28;20194;-29
2021/08/06 01:13:08;;;;;;;1.80;1.70;;;19.80;78.40;;;;;;10387042;28;20241;-28
2021/08/06 01:18:34;;;;;;;1.90;1.80;;;19.90;78.50;;;;;;10366981;28;20206;-31
2021/08/06 01:23:59;;;;;;;2.00;1.90;;;19.80;78.40;;;;;;10344303;28;20223;-29
2021/08/06 01:29:23;;;;;;;1.90;1.80;;;19.90;78.40;;;;;;10337255;28;20195;-31
2021/08/06 01:34:45;;;;;;;2.83;2.17;;;19.80;78.30;;;;;;10333509;28;20218;-29
2021/08/06 01:40:09;;;;;;;2.53;1.83;;;19.80;78.30;;;;;;10331843;28;20214;-29
2021/08/06 01:45:38;;;;;;;3.20;2.00;;;19.90;78.40;;;;;;10333464;28;20223;-29
2021/08/06 01:51:00;;;;;;;3.30;2.10;;;19.90;78.40;;;;;;10335349;28;20665;-29
2021/08/06 01:56:23;;;;;;;2.50;1.70;;;19.80;78.30;;;;;;10332596;28;20195;-27
2021/08/06 02:01:47;;;;;;;2.50;2.30;;;19.80;78.30;;;;;;10334516;28;20222;-31
2021/08/06 02:07:09;;;;;;;2.10;2.00;;;19.90;78.30;;;;;;10339641;28;20206;-32
2021/08/06 02:12:32;;;;;;;1.90;1.80;;;19.90;78.30;;;;;;10344948;28;20218;-32
2021/08/06 02:17:57;;;;;;;2.10;2.00;;;19.80;78.20;;;;;;10367428;28;20755;-30
2021/08/06 02:23:20;;;;;;;2.30;2.10;;;19.80;78.20;;;;;;10355864;28;20699;-29
2021/08/06 02:28:44;;;;;;;2.23;2.13;;;19.90;78.30;;;;;;10445704;23;20229;-23
2021/08/06 02:34:09;;;;;;;1.90;1.80;;;19.90;78.30;;;;;;10490056;28;20284;-22
2021/08/06 02:39:32;;;;;;;2.00;1.80;;;19.90;78.20;;;;;;10456722;28;20216;-21
2021/08/06 02:44:54;;;;;;;2.10;1.83;;;19.90;78.20;;;;;;10484448;28;20595;-22
2021/08/06 02:50:17;;;;;;;2.00;1.90;;;19.80;78.20;;;;;;10494014;28;20193;-21
2021/08/06 02:55:40;;;;;;;1.80;1.70;;;19.80;78.10;;;;;;10493336;28;20953;-22
2021/08/06 03:01:02;;;;;;;1.90;1.80;;;19.90;78.10;;;;;;10485534;28;20197;-21
2021/08/06 03:06:25;;;;;;;2.20;2.00;;;19.90;78.30;;;;;;10494397;28;20221;-21
2021/08/06 03:11:47;;;;;;;1.90;1.80;;;19.90;78.20;;;;;;10488763;28;20201;-22
2021/08/06 03:17:09;;;;;;;2.10;1.93;;;19.90;78.20;;;;;;10474701;28;20227;-23
2021/08/06 03:22:33;;;;;;;2.10;2.00;;;19.80;78.10;;;;;;10477955;28;20688;-23
2021/08/06 03:27:56;;;;;;;2.20;2.10;;;19.90;78.20;;;;;;10456785;28;20232;-21
2021/08/06 03:33:18;;;;;;;2.90;2.20;;;19.90;78.20;;;;;;10448695;28;20323;-21
2021/08/06 03:38:42;;;;;;;1.87;1.77;;;19.80;78.20;;;;;;10471350;28;20587;-24
2021/08/06 03:44:04;;;;;;;2.00;1.90;;;19.80;78.20;;;;;;10495905;28;20212;-23
2021/08/06 03:49:26;;;;;;;1.93;1.83;;;19.80;78.10;;;;;;10488432;28;20717;-21
2021/08/06 03:54:49;;;;;;;2.47;2.27;;;19.80;78.60;;;;;;10494510;28;20199;-24
2021/08/06 04:00:13;;;;;;;2.43;2.13;;;19.90;78.10;;;;;;10488404;28;20894;-24
2021/08/06 04:05:36;;;;;;;2.53;2.33;;;19.90;78.20;;;;;;10458722;28;20625;-22
2021/08/06 04:11:00;;;;;;;2.30;2.10;;;19.80;78.10;;;;;;10473248;28;20197;-20
2021/08/06 04:16:22;;;;;;;2.40;2.20;;;19.90;78.00;;;;;;10474469;28;20213;-20
2021/08/06 04:21:44;;;;;;;2.00;1.90;;;19.80;78.10;;;;;;10469646;28;20196;-21
2021/08/06 04:27:07;;;;;;;2.50;2.30;;;19.80;78.00;;;;;;10472932;28;20708;-22
2021/08/06 04:32:29;;;;;;;2.33;2.13;;;19.80;78.10;;;;;;10471579;28;20193;-21
2021/08/06 04:37:53;;;;;;;2.27;2.00;;;19.80;78.10;;;;;;10469896;28;20216;-23
2021/08/06 04:43:19;;;;;;;2.47;2.27;;;19.80;78.00;;;;;;10461249;28;20221;-23
2021/08/06 04:48:41;;;;;;;2.40;2.20;;;19.90;78.10;;;;;;10471687;28;20399;-22
2021/08/06 04:54:04;;;;;;;2.43;2.23;;;19.80;78.00;;;;;;10472642;28;20196;-21
2021/08/06 04:59:27;;;;;;;2.60;2.40;;;19.80;77.90;;;;;;10466279;28;20209;-21
2021/08/06 05:04:49;;;;;;;2.60;2.40;;;19.80;78.00;;;;;;10462812;28;20756;-22
2021/08/06 05:10:11;;;;;;;2.80;2.10;;;19.80;78.00;;;;;;10465480;28;20231;-23
2021/08/06 05:15:35;;;;;;;2.30;2.10;;;19.80;78.00;;;;;;10472336;28;20718;-22
2021/08/06 05:20:57;;;;;;;2.83;2.63;;;19.80;78.00;;;;;;10470552;28;20663;-23
2021/08/06 05:26:19;;;;;;;2.10;1.90;;;19.80;78.00;;;;;;10471403;28;20216;-23
2021/08/06 05:31:42;;;;;;;2.50;2.30;;;19.90;78.10;;;;;;10468020;28;20584;-22
2021/08/06 05:37:05;;;;;;;2.37;2.17;;;19.80;78.10;;;;;;10453824;28;20213;-23
2021/08/06 05:42:27;;;;;;;2.73;2.53;;;19.80;78.20;;;;;;10459933;28;20196;-22
2021/08/06 05:47:52;;;;;;;3.30;2.20;;;19.80;78.10;;;;;;10454732;28;20227;-22
2021/08/06 05:53:14;;;;;;;2.33;2.13;;;19.80;78.30;;;;;;10462946;28;20203;-23
2021/08/06 05:58:36;;;;;;;2.37;2.17;;;19.80;78.30;;;;;;10489911;28;20562;-22
2021/08/06 06:04:00;;;;;;;2.53;2.33;;;19.80;78.30;;;;;;10493578;28;20216;-22
2021/08/06 06:09:22;;;;;;;2.90;2.70;;;19.80;78.30;;;;;;10493100;28;20224;-23
2021/08/06 06:14:44;;;;;;;2.30;2.13;;;19.80;78.30;;;;;;10491683;28;20185;-22
2021/08/06 06:20:08;;;;;;;2.30;2.10;;;19.80;78.30;;;;;;10493125;28;20737;-23
2021/08/06 06:25:31;;;;;;;7.87;7.10;;;19.80;78.30;;;;;;10464036;28;20225;-22
2021/08/06 06:30:53;;;;;;;8.70;7.83;;;19.70;76.10;;;;;;10490141;28;20203;-23
2021/08/06 06:36:16;;;;;;;8.57;7.33;;;19.40;76.80;;;;;;10498568;28;20710;-23
2021/08/06 06:41:38;;;;;;;8.60;7.40;;;19.40;77.30;;;;;;10484837;28;20212;-22
2021/08/06 06:47:01;;;;;;;7.83;7.00;;;19.30;77.60;;;;;;10496808;28;20223;-22
2021/08/06 06:52:24;;;;;;;9.07;6.73;;;19.30;77.40;;;;;;10476789;28;20196;-22
2021/08/06 06:57:50;;;;;;;7.30;6.60;;;19.30;77.50;;;;;;10496344;28;20215;-22
2021/08/06 07:03:12;;;;;;;7.07;6.20;;;19.40;77.50;;;;;;10496204;28;20204;-22
2021/08/06 07:08:35;;;;;;;6.60;5.90;;;19.40;77.50;;;;;;10492248;28;20209;-22
2021/08/06 07:13:57;;;;;;;6.50;5.90;;;19.50;77.30;;;;;;10486767;28;20188;-23
2021/08/06 07:19:19;;;;;;;7.30;5.63;;;19.60;77.40;;;;;;10463413;28;20225;-22
2021/08/06 07:24:43;;;;;;;6.70;6.07;;;19.60;77.30;;;;;;10464030;28;20216;-22
2021/08/06 07:30:06;;;;;;;7.50;5.60;;;19.60;77.50;;;;;;10487028;28;20710;-23
2021/08/06 07:35:31;;;;;;;5.30;4.60;;;19.70;77.50;;;;;;10478590;28;20211;-20
2021/08/06 07:40:55;;;;;;;5.33;4.83;;;19.70;77.50;;;;;;10456065;28;20193;-22
2021/08/06 07:46:17;;;;;;;5.87;5.27;;;19.70;77.70;;;;;;10473338;28;20268;-23
2021/08/06 07:51:39;;;;;;;6.67;4.90;;;19.80;77.50;;;;;;10481559;28;20208;-24
2021/08/06 07:57:03;;;;;;;6.40;5.00;;;19.80;77.50;;;;;;10477974;28;20212;-25
2021/08/06 08:02:26;;;;;;;5.33;4.83;;;19.90;77.80;;;;;;10464512;28;20193;-22
2021/08/06 08:07:48;;;;;;;5.73;5.13;;;19.90;77.80;;;;;;10449551;28;20209;-22
2021/08/06 08:13:11;;;;;;;5.87;4.67;;;20.00;77.80;;;;;;10453446;28;20193;-22
2021/08/06 08:18:34;;;;;;;5.87;4.83;;;20.00;77.90;;;;;;10486802;28;20220;-22
2021/08/06 08:23:56;;;;;;;6.20;4.87;;;20.00;78.00;;;;;;10473153;28;20229;-22
2021/08/06 08:29:19;;;;;;;5.40;4.90;;;20.00;77.90;;;;;;10488548;28;20278;-22
2021/08/06 08:34:41;;;;;;;5.23;4.73;;;20.10;78.30;;;;;;10489055;28;20188;-23
2021/08/06 08:40:06;;;;;;;5.60;5.00;;;20.10;78.30;;;;;;10470184;28;20225;-24
2021/08/06 08:45:29;;;;;;;4.50;4.10;;;20.10;78.80;;;;;;10455935;28;20213;-22
2021/08/06 08:50:54;;;;;;;5.43;4.87;;;20.10;78.30;;;;;;10463849;28;20197;-21
2021/08/06 08:56:16;;;;;;;4.63;4.07;;;20.10;78.80;;;;;;10455551;28;20223;-22
2021/08/06 09:01:40;;;;;;;5.70;4.33;;;20.10;78.90;;;;;;10478668;28;20207;-22
2021/08/06 09:07:02;;;;;;;4.23;3.83;;;20.20;78.80;;;;;;10478741;28;21010;-22
2021/08/06 09:12:24;;;;;;;4.03;3.37;;;20.20;79.00;;;;;;10464213;28;20236;-23
2021/08/06 09:17:48;;;;;;;4.13;3.43;;;20.20;79.00;;;;;;10462489;28;20216;-24
2021/08/06 09:23:10;;;;;;;6.50;3.27;;;20.20;78.40;;;;;;10448737;28;20463;-24
2021/08/06 09:28:33;;;;;;;3.70;3.40;;;20.30;78.30;;;;;;10477784;28;20232;-23
2021/08/06 09:34:19;;;;;;;3.70;3.23;;;20.50;77.90;;;;;;10489328;28;20224;-23
2021/08/06 09:39:43;;;;;;;3.60;3.03;;;20.40;78.00;;;;;;10462660;23;20620;-29
2021/08/06 09:45:08;;;;;;;2.90;2.70;;;20.30;78.60;;;;;;10426576;28;20351;-32
2021/08/06 09:50:36;;;;;;;3.30;2.20;;;20.30;78.00;;;;;;10385988;28;20223;-29
2021/08/06 09:55:58;;;;;;;3.47;2.70;;;20.40;78.10;;;;;;10388169;28;20200;-32
2021/08/06 10:01:21;;;;;;;3.37;2.50;;;20.40;77.90;;;;;;10407548;28;20224;-31
2021/08/06 10:06:58;;;;;;;3.97;2.80;;;20.40;78.30;;;;;;10396691;28;20301;-32
2021/08/06 10:12:20;;;;;;;2.77;2.43;;;20.30;78.50;;;;;;10372898;28;20198;-31
2021/08/06 10:17:43;;;;;;;8.33;2.70;;;20.40;78.80;;;;;;10380664;28;20215;-29
2021/08/06 10:23:06;;;;;;;2.50;2.30;;;20.30;78.70;;;;;;10386322;28;20689;-29
2021/08/06 10:28:31;;;;;;;2.63;2.30;;;20.40;78.50;;;;;;10396743;28;20214;-29
2021/08/06 10:34:04;;;;;;;2.40;2.20;;;20.40;79.10;;;;;;10424089;28;20576;-29
2021/08/06 10:39:46;;;;;;;2.50;2.30;;;20.30;79.10;;;;;;10424242;28;20226;-28
2021/08/06 10:45:08;;;;;;;3.37;2.50;;;20.30;79.00;;;;;;10418579;28;20589;-30
2021/08/06 10:50:30;;;;;;;2.30;2.10;;;20.30;79.10;;;;;;10390959;28;20751;-28
2021/08/06 10:56:25;;;;;;;4.90;2.57;;;20.30;79.20;;;;;;10386544;28;20190;-30
2021/08/06 11:01:48;;;;;;;4.33;2.60;;;20.30;79.10;;;;;;10393274;28;20301;-29
2021/08/06 11:07:31;;;;;;;4.20;2.20;;;20.30;79.70;;;;;;10384172;28;20267;-30
2021/08/06 11:12:55;;;;;;;4.60;3.20;;;20.30;79.00;;;;;;10390279;28;20194;-29
2021/08/06 11:18:17;;;;;;;7.70;3.13;;;20.30;78.80;;;;;;10407393;28;20214;-30
2021/08/06 11:23:39;;;;;;;6.23;3.00;;;20.30;78.60;;;;;;10424095;28;20228;-31
2021/08/06 11:29:14;;;;;;;6.23;2.90;;;20.40;78.70;;;;;;10410427;28;20226;-32
2021/08/06 11:34:53;;;;;;;4.63;2.77;;;20.40;78.50;;;;;;10420163;28;20191;-30
2021/08/06 11:40:18;;;;;;;5.87;2.57;;;20.40;78.20;;;;;;10387922;28;20222;-29
2021/08/06 11:45:42;;;;;;;2.97;2.50;;;20.40;78.00;;;;;;10385418;28;20232;-28
2021/08/06 11:51:06;;;;;;;3.73;2.23;;;20.40;77.40;;;;;;10380358;28;20218;-29
2021/08/06 11:56:28;;;;;;;2.53;2.20;;;20.40;77.80;;;;;;10381199;28;20194;-29
2021/08/06 12:02:18;;;;;;;3.07;1.80;;;20.40;77.10;;;;;;10415517;28;20217;-30
2021/08/06 12:07:40;;;;;;;2.90;2.33;;;20.50;75.30;;;;;;10417673;28;20221;-28
2021/08/06 12:13:10;;;;;;;3.03;2.53;;;20.50;75.60;;;;;;10412448;28;20198;-29
2021/08/06 12:18:34;;;;;;;2.60;2.33;;;20.50;74.30;;;;;;10400367;28;20214;-30
2021/08/06 12:23:59;;;;;;;2.73;2.00;;;20.60;74.40;;;;;;10399597;28;20218;-29
2021/08/06 12:29:22;;;;;;;2.13;1.93;;;20.60;74.40;;;;;;10405210;28;20214;-30
2021/08/06 12:34:48;;;;;;;2.23;2.03;;;20.50;75.10;;;;;;10417663;28;20275;-29
2021/08/06 12:40:12;;;;;;;2.20;2.00;;;20.50;75.60;;;;;;10398920;28;20233;-29
2021/08/06 12:45:34;;;;;;;2.60;2.23;;;20.50;76.00;;;;;;10383487;28;20228;-28
2021/08/06 12:51:17;;;;;;;2.50;2.27;;;20.50;76.50;;;;;;10385094;28;20229;-28
2021/08/06 12:56:53;;;;;;;2.40;2.03;;;20.50;76.40;;;;;;10375938;28;20190;-30
2021/08/06 13:02:18;;;;;;;2.30;2.10;;;20.50;76.70;;;;;;10377588;28;20684;-29
2021/08/06 13:07:42;;;;;;;2.30;2.10;;;20.40;77.20;;;;;;10388054;28;20231;-29
2021/08/06 13:13:04;;;;;;;2.30;2.10;;;20.40;77.80;;;;;;10392347;28;20205;-29
2021/08/06 13:18:27;;;;;;;2.50;2.23;;;20.40;77.30;;;;;;10411332;28;20209;-31
2021/08/06 13:23:50;;;;;;;2.10;1.90;;;20.40;77.40;;;;;;10411487;28;20193;-28
2021/08/06 13:29:12;;;;;;;2.60;2.27;;;20.40;77.80;;;;;;10420731;28;20224;-31
2021/08/06 13:34:35;;;;;;;2.27;2.07;;;20.40;77.80;;;;;;10420015;28;20189;-30
2021/08/06 13:39:58;;;;;;;2.37;2.17;;;20.40;78.50;;;;;;10440794;28;20224;-31
2021/08/06 13:45:20;;;;;;;3.37;1.90;;;20.40;80.30;;;;;;10458155;28;20232;-28
2021/08/06 13:50:43;;;;;;;3.60;2.10;;;20.50;81.20;;;;;;10425810;28;20218;-30
2021/08/06 13:56:06;;;;;;;3.53;2.20;;;20.40;81.40;;;;;;10430482;28;20200;-30
2021/08/06 14:01:28;;;;;;;4.33;1.90;;;20.40;82.70;;;;;;10464537;28;20244;-30
2021/08/06 14:06:50;;;;;;;3.07;1.87;;;20.40;83.30;;;;;;10454409;28;20236;-31
2021/08/06 14:12:15;;;;;;;2.07;1.87;;;20.40;81.70;;;;;;10433705;28;20220;-30
2021/08/06 14:17:37;;;;;;;2.63;1.90;;;20.40;81.00;;;;;;10425884;28;20632;-32
2021/08/06 14:22:59;;;;;;;2.10;1.90;;;20.40;81.20;;;;;;10448663;28;20197;-31
2021/08/06 14:28:23;;;;;;;2.10;1.90;;;20.40;81.10;;;;;;10462200;28;20818;-30
2021/08/06 14:33:45;;;;;;;2.37;2.00;;;20.40;81.00;;;;;;10444780;28;20208;-28
2021/08/06 14:39:07;;;;;;;2.80;1.70;;;20.40;81.20;;;;;;10461098;28;20213;-30
2021/08/06 14:44:31;;;;;;;1.93;1.70;;;20.30;81.10;;;;;;10468425;28;20231;-30
2021/08/06 14:49:53;;;;;;;1.90;1.70;;;20.40;81.40;;;;;;10437594;28;20213;-30
2021/08/06 14:55:18;;;;;;;2.50;1.50;;;20.30;81.30;;;;;;10428859;28;20589;-31
2021/08/06 15:00:41;;;;;;;1.87;1.57;;;20.30;81.30;;;;;;10428814;28;20221;-29
2021/08/06 15:06:04;;;;;;;1.97;1.60;;;20.30;81.30;;;;;;10434830;28;20217;-31
2021/08/06 15:11:26;;;;;;;2.37;1.97;;;20.30;81.70;;;;;;10460603;28;20224;-30
2021/08/06 15:16:49;;;;;;;4.43;1.50;;;20.30;81.50;;;;;;10451501;28;20576;-30
2021/08/06 15:22:12;;;;;;;1.87;1.40;;;20.30;81.50;;;;;;10443821;28;20206;-29
2021/08/06 15:27:34;;;;;;;1.50;1.20;;;20.30;81.40;;;;;;10415810;28;20229;-31
2021/08/06 15:32:58;;;;;;;2.70;1.40;;;20.40;82.10;;;;;;10422927;28;20208;-29
2021/08/06 15:38:21;;;;;;;2.53;1.23;;;20.40;82.20;;;;;;10454225;22;20220;-24
2021/08/06 15:43:43;;;;;;;4.03;1.37;;;20.40;82.10;;;;;;10486964;28;20664;-23
2021/08/06 15:49:07;;;;;;;2.97;1.20;;;20.40;82.10;;;;;;10489362;28;20238;-22
2021/08/06 15:54:29;;;;;;;2.47;1.30;;;20.40;81.80;;;;;;10490705;28;20196;-21
2021/08/06 15:59:53;;;;;;;1.30;1.20;;;20.40;81.70;;;;;;10461170;28;20722;-22
2021/08/06 16:05:17;;;;;;;3.40;1.20;;;20.30;81.60;;;;;;10448167;28;20815;-21
2021/08/06 16:10:41;;;;;;;1.33;1.03;;;20.40;81.60;;;;;;10429953;28;20217;-22
2021/08/06 16:16:03;;;;;;;1.23;1.13;;;20.30;81.60;;;;;;10411672;28;20657;-21
2021/08/06 16:21:26;;;;;;;1.37;1.20;;;20.30;81.60;;;;;;10418148;28;20217;-21
2021/08/06 16:26:48;;;;;;;1.27;0.97;;;20.30;81.60;;;;;;10432267;28;20213;-21
2021/08/06 16:32:11;;;;;;;1.70;1.10;;;20.30;81.50;;;;;;10430208;28;20211;-21
2021/08/06 16:37:35;;;;;;;1.67;1.10;;;20.30;81.40;;;;;;10433569;28;20209;-20
2021/08/06 16:42:57;;;;;;;1.20;1.10;;;20.30;81.40;;;;;;10427517;28;20590;-24
2021/08/06 16:48:19;;;;;;;1.53;0.97;;;20.30;81.40;;;;;;10426858;28;20217;-30
2021/08/06 16:53:43;;;;;;;1.37;1.10;;;20.30;81.40;;;;;;10431405;28;20202;-21
2021/08/06 16:59:05;;;;;;;1.10;1.00;;;20.20;81.40;;;;;;10432539;28;20221;-22
2021/08/06 17:04:27;;;;;;;1.47;1.10;;;20.30;81.60;;;;;;10422255;28;20209;-21
2021/08/06 17:09:51;;;;;;;2.00;1.20;;;20.20;81.50;;;;;;10425192;28;20225;-21
2021/08/06 17:15:13;;;;;;;1.47;1.30;;;20.30;81.60;;;;;;10425933;28;20669;-23
2021/08/06 17:20:35;;;;;;;1.87;1.40;;;20.30;81.60;;;;;;10428377;28;20216;-21
2021/08/06 17:25:59;;;;;;;1.63;1.10;;;20.20;81.60;;;;;;10410902;28;20217;-23
2021/08/06 17:31:21;;;;;;;1.50;1.00;;;20.20;81.70;;;;;;10404154;28;20217;-21
2021/08/06 17:36:43;;;;;;;1.30;1.20;;;20.20;81.60;;;;;;10446644;28;20193;-22
2021/08/06 17:42:06;;;;;;;1.20;1.10;;;20.30;79.60;;;;;;10443175;28;21069;-22
2021/08/06 17:47:28;;;;;;;1.83;1.10;;;20.40;78.10;;;;;;10439471;28;20223;-20
2021/08/06 17:52:51;;;;;;;1.33;1.03;;;20.40;77.70;;;;;;10439762;28;20433;-21
2021/08/06 17:58:14;;;;;;;1.03;0.93;;;20.40;77.50;;;;;;10444240;28;20228;-21
2021/08/06 18:03:37;;;;;;;1.30;1.10;;;20.40;77.10;;;;;;10439171;28;20209;-22
2021/08/06 18:08:59;;;;;;;1.47;1.07;;;20.40;76.80;;;;;;10437533;28;20216;-22
2021/08/06 18:14:23;;;;;;;0.83;0.80;;;20.40;76.50;;;;;;10437057;28;20194;-21
2021/08/06 18:19:45;;;;;;;1.80;1.17;;;20.40;76.20;;;;;;10402225;28;20210;-22
2021/08/06 18:25:08;;;;;;;2.85;1.25;;;20.40;75.80;;;;;;10421103;28;20437;-22
2021/08/06 18:30:32;;;;;;;1.00;1.00;;;20.60;74.60;;;;;;10407049;28;20225;-21
2021/08/06 18:35:54;;;;;;;1.20;1.10;;;20.60;75.40;;;;;;10416178;28;20683;-21
2021/08/06 18:41:19;;;;;;;2.20;1.20;;;20.50;75.50;;;;;;10441154;28;20600;-21
2021/08/06 18:46:42;;;;;;;5.53;1.30;;;20.50;75.10;;;;;;10462426;28;20220;-21
2021/08/06 18:52:05;;;;;;;1.17;1.07;;;20.50;75.40;;;;;;10471806;28;20228;-21
2021/08/06 18:57:27;;;;;;;1.30;1.00;;;20.50;75.40;;;;;;10452121;28;20193;-21
2021/08/06 19:02:51;;;;;;;2.40;0.83;;;20.60;75.50;;;;;;10449586;28;20762;-23
2021/08/06 19:08:13;;;;;;;1.30;0.90;;;20.60;74.50;;;;;;10429896;28;20604;-21
2021/08/06 19:13:35;;;;;;;0.80;0.80;;;20.60;75.00;;;;;;10427439;28;20204;-20
2021/08/06 19:18:58;;;;;;;1.77;1.00;;;20.60;75.10;;;;;;10426911;28;20634;-22
2021/08/06 19:24:21;;;;;;;1.40;1.00;;;20.60;74.90;;;;;;10422465;28;20513;-21
2021/08/06 19:29:43;;;;;;;1.83;1.03;;;20.60;74.50;;;;;;10427549;28;20221;-22
2021/08/06 19:35:08;;;;;;;1.53;0.90;;;20.60;74.90;;;;;;10415079;28;20202;-22
2021/08/06 19:40:30;;;;;;;2.10;0.90;;;20.60;74.40;;;;;;10409824;28;20311;-21
2021/08/06 19:45:52;;;;;;;1.63;0.93;;;20.60;74.30;;;;;;10464766;28;20213;-21
2021/08/06 19:51:15;;;;;;;1.97;0.87;;;20.60;73.90;;;;;;10444313;28;20213;-23
2021/08/06 19:56:37;;;;;;;2.00;0.77;;;20.60;73.90;;;;;;10413487;28;20201;-21
2021/08/06 20:01:59;;;;;;;0.87;0.80;;;20.60;74.50;;;;;;10430764;28;20216;-21
2021/08/06 20:07:23;;;;;;;1.20;0.90;;;20.60;74.00;;;;;;10443467;28;20228;-21
2021/08/06 20:12:45;;;;;;;1.43;0.80;;;20.60;73.60;;;;;;10445685;28;20209;-20
2021/08/06 20:18:07;;;;;;;1.37;0.77;;;20.60;73.70;;;;;;10413186;28;20713;-22
2021/08/06 20:23:32;;;;;;;1.50;0.83;;;20.60;74.20;;;;;;10465920;28;20205;-21
2021/08/06 20:28:54;;;;;;;1.00;0.70;;;20.60;73.60;;;;;;10493339;28;20216;-22
2021/08/06 20:34:16;;;;;;;1.20;0.90;;;20.70;73.50;;;;;;10493219;28;20200;-22
2021/08/06 20:39:39;;;;;;;1.63;0.90;;;20.70;74.10;;;;;;10493404;28;20227;-20
2021/08/06 20:45:01;;;;;;;2.30;1.10;;;20.60;73.70;;;;;;10473280;28;20200;-22
2021/08/06 20:50:23;;;;;;;1.03;0.70;;;20.70;73.50;;;;;;10458096;28;20215;-22
2021/08/06 20:55:47;;;;;;;1.33;1.00;;;20.70;73.50;;;;;;10453397;28;20189;-22
2021/08/06 21:01:09;;;;;;;1.20;1.10;;;20.60;74.20;;;;;;10456830;28;20259;-21
2021/08/06 21:06:32;;;;;;;1.33;0.83;;;20.70;73.50;;;;;;10493012;28;20212;-21
2021/08/06 21:11:55;;;;;;;1.20;1.10;;;20.70;73.60;;;;;;10493355;28;20258;-21
2021/08/06 21:17:17;;;;;;;2.57;1.00;;;20.70;74.50;;;;;;10493332;28;20200;-21
2021/08/06 21:22:40;;;;;;;1.20;1.00;;;20.70;73.60;;;;;;10472947;28;20193;-20
2021/08/06 21:28:04;;;;;;;2.70;1.10;;;20.70;73.50;;;;;;10451960;28;20600;-21
2021/08/06 21:33:26;;;;;;;1.67;1.10;;;20.70;73.80;;;;;;10434835;28;20198;-22
2021/08/06 21:38:48;;;;;;;2.23;1.10;;;20.70;73.60;;;;;;10448510;28;20221;-21
2021/08/06 21:44:12;;;;;;;3.53;1.03;;;20.70;73.20;;;;;;10465163;23;20228;-31
2021/08/06 21:49:35;;;;;;;2.67;0.97;;;20.70;73.70;;;;;;10438707;28;20220;-31
2021/08/06 21:54:57;;;;;;;2.30;1.03;;;20.70;73.70;;;;;;10461754;28;20619;-31
2021/08/06 22:00:20;;;;;;;1.23;0.80;;;20.70;73.30;;;;;;10463632;28;20197;-30
2021/08/06 22:05:42;;;;;;;1.70;1.23;;;20.70;73.10;;;;;;10451892;28;20251;-31
2021/08/06 22:11:05;;;;;;;2.30;1.00;;;20.70;73.90;;;;;;10443251;28;20202;-31
2021/08/06 22:16:28;;;;;;;1.00;0.90;;;20.70;73.10;;;;;;10381280;28;20210;-30
2021/08/06 22:21:50;;;;;;;1.80;1.03;;;20.70;73.10;;;;;;10427654;28;20197;-29
2021/08/06 22:27:12;;;;;;;1.73;0.90;;;20.70;74.10;;;;;;10427809;28;20222;-31
2021/08/06 22:32:36;;;;;;;1.23;0.90;;;20.70;72.90;;;;;;10429954;28;20674;-30
2021/08/06 22:37:58;;;;;;;1.63;1.10;;;20.80;73.00;;;;;;10428185;28;20213;-32
2021/08/06 22:43:20;;;;;;;2.73;0.97;;;20.70;73.80;;;;;;10390391;28;20194;-33
2021/08/06 22:48:43;;;;;;;1.30;1.20;;;20.70;72.90;;;;;;10391357;28;20221;-29
2021/08/06 22:54:05;;;;;;;1.83;1.10;;;20.70;73.10;;;;;;10425215;28;20367;-30
2021/08/06 22:59:28;;;;;;;0.70;0.70;;;20.70;73.60;;;;;;10419643;28;20194;-29
2021/08/06 23:04:53;;;;;;;1.10;0.80;;;20.70;72.60;;;;;;10463945;28;20216;-32
2021/08/06 23:10:15;;;;;;;1.33;1.00;;;20.80;73.10;;;;;;10453806;28;20241;-30
2021/08/06 23:15:37;;;;;;;1.10;1.00;;;20.70;73.10;;;;;;10387940;28;20214;-30
2021/08/06 23:21:00;;;;;;;1.57;1.10;;;20.70;72.70;;;;;;10399449;28;20672;-30
2021/08/06 23:26:22;;;;;;;2.03;1.40;;;20.70;73.50;;;;;;10427628;28;20724;-32
2021/08/06 23:31:44;;;;;;;1.20;0.80;;;20.70;72.90;;;;;;10427576;28;20198;-33
2021/08/06 23:37:09;;;;;;;1.80;1.10;;;20.70;72.80;;;;;;10421930;28;20226;-31
2021/08/06 23:42:31;;;;;;;3.90;1.13;;;20.70;73.60;;;;;;10430234;28;20689;-32
2021/08/06 23:47:54;;;;;;;1.20;1.00;;;20.70;73.00;;;;;;10431201;28;20229;-34
2021/08/06 23:53:20;;;;;;;1.00;0.90;;;20.70;72.70;;;;;;10451901;28;20197;-29
2021/08/06 23:58:42;;;;;;;1.07;0.90;;;20.70;73.80;;;;;;10434152;28;20228;-28
